sensor_id;sensor_type;location;lat;lon;timestamp;P1;durP1;ratioP1;P2;durP2;ratioP2
68168;SDS011;54981;50.206;15.978;2023-05-01T00:01:03;43.72;;;39.22;;
68168;SDS011;54981;50.206;15.978;2023-05-01T00:03:35;44.25;;;39.90;;
68168;SDS011;54981;50.206;15.978;2023-05-01T00:06:05;45.50;;;40.83;;
68168;SDS011;54981;50.206;15.978;2023-05-01T00:08:36;43.15;;;38.97;;
68168;SDS011;54981;50.206;15.978;2023-05-01T00:11:07;39.95;;;36.28;;
68168;SDS011;54981;50.206;15.978;2023-05-01T00:13:41;45.03;;;40.65;;
68168;SDS011;54981;50.206;15.978;2023-05-01T00:16:12;40.58;;;36.67;;
68168;SDS011;54981;50.206;15.978;2023-05-01T00:18:43;38.78;;;35.20;;
68168;SDS011;54981;50.206;15.978;2023-05-01T00:21:14;46.75;;;42.15;;
68168;SDS011;54981;50.206;15.978;2023-05-01T00:23:44;41.50;;;37.17;;
68168;SDS011;54981;50.206;15.978;2023-05-01T00:26:15;45.22;;;40.53;;
68168;SDS011;54981;50.206;15.978;2023-05-01T00:28:45;46.78;;;41.97;;
68168;SDS011;54981;50.206;15.978;2023-05-01T00:31:15;82.35;;;59.78;;
68168;SDS011;54981;50.206;15.978;2023-05-01T00:33:47;48.25;;;43.22;;
68168;SDS011;54981;50.206;15.978;2023-05-01T00:36:17;41.47;;;36.95;;
68168;SDS011;54981;50.206;15.978;2023-05-01T00:38:47;42.35;;;38.00;;
68168;SDS011;54981;50.206;15.978;2023-05-01T00:41:18;42.63;;;38.53;;
68168;SDS011;54981;50.206;15.978;2023-05-01T00:43:48;41.60;;;37.72;;
68168;SDS011;54981;50.206;15.978;2023-05-01T00:46:19;39.78;;;35.85;;
68168;SDS011;54981;50.206;15.978;2023-05-01T00:48:51;43.42;;;39.00;;
68168;SDS011;54981;50.206;15.978;2023-05-01T00:51:21;36.90;;;33.33;;
68168;SDS011;54981;50.206;15.978;2023-05-01T00:53:55;42.97;;;38.70;;
68168;SDS011;54981;50.206;15.978;2023-05-01T00:56:25;39.95;;;35.70;;
68168;SDS011;54981;50.206;15.978;2023-05-01T00:58:56;38.83;;;35.10;;
68168;SDS011;54981;50.206;15.978;2023-05-01T01:01:28;36.30;;;32.60;;
68168;SDS011;54981;50.206;15.978;2023-05-01T01:03:59;40.35;;;36.13;;
68168;SDS011;54981;50.206;15.978;2023-05-01T01:06:48;41.10;;;37.22;;
68168;SDS011;54981;50.206;15.978;2023-05-01T01:20:23;38.72;;;34.65;;
68168;SDS011;54981;50.206;15.978;2023-05-01T01:29:03;35.67;;;31.98;;
68168;SDS011;54981;50.206;15.978;2023-05-01T01:31:59;33.22;;;30.10;;
68168;SDS011;54981;50.206;15.978;2023-05-01T01:34:43;37.83;;;34.08;;
68168;SDS011;54981;50.206;15.978;2023-05-01T01:37:31;38.97;;;35.08;;
68168;SDS011;54981;50.206;15.978;2023-05-01T01:40:17;38.45;;;34.85;;
68168;SDS011;54981;50.206;15.978;2023-05-01T01:43:04;37.00;;;33.35;;
68168;SDS011;54981;50.206;15.978;2023-05-01T01:45:38;34.50;;;31.13;;
68168;SDS011;54981;50.206;15.978;2023-05-01T01:48:13;38.83;;;35.08;;
68168;SDS011;54981;50.206;15.978;2023-05-01T01:50:46;39.20;;;35.17;;
68168;SDS011;54981;50.206;15.978;2023-05-01T01:53:18;42.03;;;38.08;;
68168;SDS011;54981;50.206;15.978;2023-05-01T01:55:49;37.58;;;34.30;;
68168;SDS011;54981;50.206;15.978;2023-05-01T01:58:23;34.95;;;31.50;;
68168;SDS011;54981;50.206;15.978;2023-05-01T02:00:58;37.78;;;34.45;;
68168;SDS011;54981;50.206;15.978;2023-05-01T02:03:29;44.05;;;40.00;;
68168;SDS011;54981;50.206;15.978;2023-05-01T02:06:01;43.10;;;38.83;;
68168;SDS011;54981;50.206;15.978;2023-05-01T02:08:34;35.80;;;32.75;;
68168;SDS011;54981;50.206;15.978;2023-05-01T02:11:06;35.00;;;31.60;;
68168;SDS011;54981;50.206;15.978;2023-05-01T02:13:37;31.92;;;29.08;;
68168;SDS011;54981;50.206;15.978;2023-05-01T02:16:09;37.85;;;34.58;;
68168;SDS011;54981;50.206;15.978;2023-05-01T02:18:42;33.47;;;29.08;;
68168;SDS011;54981;50.206;15.978;2023-05-01T02:21:15;33.40;;;30.25;;
68168;SDS011;54981;50.206;15.978;2023-05-01T02:23:47;36.03;;;32.75;;
68168;SDS011;54981;50.206;15.978;2023-05-01T02:26:17;37.25;;;33.53;;
68168;SDS011;54981;50.206;15.978;2023-05-01T02:28:54;38.63;;;34.97;;
68168;SDS011;54981;50.206;15.978;2023-05-01T02:31:24;31.60;;;28.80;;
68168;SDS011;54981;50.206;15.978;2023-05-01T02:33:55;39.50;;;35.33;;
68168;SDS011;54981;50.206;15.978;2023-05-01T02:36:25;40.15;;;36.22;;
68168;SDS011;54981;50.206;15.978;2023-05-01T02:38:56;40.78;;;36.75;;
68168;SDS011;54981;50.206;15.978;2023-05-01T02:41:27;37.67;;;33.90;;
68168;SDS011;54981;50.206;15.978;2023-05-01T02:44:00;35.38;;;31.95;;
68168;SDS011;54981;50.206;15.978;2023-05-01T02:46:34;36.95;;;33.38;;
68168;SDS011;54981;50.206;15.978;2023-05-01T02:49:06;41.17;;;35.63;;
68168;SDS011;54981;50.206;15.978;2023-05-01T02:51:37;37.78;;;33.95;;
68168;SDS011;54981;50.206;15.978;2023-05-01T02:54:08;37.83;;;34.03;;
68168;SDS011;54981;50.206;15.978;2023-05-01T02:56:40;40.92;;;37.15;;
68168;SDS011;54981;50.206;15.978;2023-05-01T02:59:11;41.72;;;37.47;;
68168;SDS011;54981;50.206;15.978;2023-05-01T03:01:41;44.72;;;39.63;;
68168;SDS011;54981;50.206;15.978;2023-05-01T03:04:12;38.42;;;34.60;;
68168;SDS011;54981;50.206;15.978;2023-05-01T03:06:42;38.33;;;34.42;;
68168;SDS011;54981;50.206;15.978;2023-05-01T03:09:13;42.25;;;38.00;;
68168;SDS011;54981;50.206;15.978;2023-05-01T03:11:44;42.90;;;38.45;;
68168;SDS011;54981;50.206;15.978;2023-05-01T03:14:14;39.40;;;35.63;;
68168;SDS011;54981;50.206;15.978;2023-05-01T03:16:45;38.92;;;35.25;;
68168;SDS011;54981;50.206;15.978;2023-05-01T03:19:15;35.97;;;32.03;;
68168;SDS011;54981;50.206;15.978;2023-05-01T03:21:45;55.97;;;36.75;;
68168;SDS011;54981;50.206;15.978;2023-05-01T03:24:16;36.60;;;32.88;;
68168;SDS011;54981;50.206;15.978;2023-05-01T03:26:46;36.58;;;32.70;;
68168;SDS011;54981;50.206;15.978;2023-05-01T03:29:19;32.40;;;29.33;;
68168;SDS011;54981;50.206;15.978;2023-05-01T03:31:50;33.50;;;30.15;;
68168;SDS011;54981;50.206;15.978;2023-05-01T03:34:20;36.67;;;33.15;;
68168;SDS011;54981;50.206;15.978;2023-05-01T03:36:54;36.63;;;33.33;;
68168;SDS011;54981;50.206;15.978;2023-05-01T03:39:25;39.42;;;34.97;;
68168;SDS011;54981;50.206;15.978;2023-05-01T03:41:55;38.00;;;34.30;;
68168;SDS011;54981;50.206;15.978;2023-05-01T03:44:26;37.15;;;33.40;;
68168;SDS011;54981;50.206;15.978;2023-05-01T03:46:59;39.67;;;35.97;;
68168;SDS011;54981;50.206;15.978;2023-05-01T03:49:30;36.63;;;33.53;;
68168;SDS011;54981;50.206;15.978;2023-05-01T03:52:01;40.75;;;36.97;;
68168;SDS011;54981;50.206;15.978;2023-05-01T03:54:31;35.22;;;31.92;;
68168;SDS011;54981;50.206;15.978;2023-05-01T03:57:02;36.33;;;33.05;;
68168;SDS011;54981;50.206;15.978;2023-05-01T03:59:32;41.42;;;37.42;;
68168;SDS011;54981;50.206;15.978;2023-05-01T04:02:04;35.95;;;32.58;;
68168;SDS011;54981;50.206;15.978;2023-05-01T04:04:37;38.30;;;34.50;;
68168;SDS011;54981;50.206;15.978;2023-05-01T04:07:08;35.42;;;31.90;;
68168;SDS011;54981;50.206;15.978;2023-05-01T04:09:39;40.20;;;36.42;;
68168;SDS011;54981;50.206;15.978;2023-05-01T04:12:09;40.42;;;36.53;;
68168;SDS011;54981;50.206;15.978;2023-05-01T04:14:39;39.67;;;35.72;;
68168;SDS011;54981;50.206;15.978;2023-05-01T04:17:12;38.65;;;34.60;;
68168;SDS011;54981;50.206;15.978;2023-05-01T04:19:42;40.63;;;36.20;;
68168;SDS011;54981;50.206;15.978;2023-05-01T04:22:13;37.25;;;33.38;;
68168;SDS011;54981;50.206;15.978;2023-05-01T04:24:43;39.88;;;36.33;;
68168;SDS011;54981;50.206;15.978;2023-05-01T04:27:14;36.58;;;32.95;;
68168;SDS011;54981;50.206;15.978;2023-05-01T04:29:45;39.92;;;35.78;;
68168;SDS011;54981;50.206;15.978;2023-05-01T04:32:15;39.55;;;35.90;;
68168;SDS011;54981;50.206;15.978;2023-05-01T04:34:46;38.75;;;34.72;;
68168;SDS011;54981;50.206;15.978;2023-05-01T04:37:16;37.97;;;34.42;;
68168;SDS011;54981;50.206;15.978;2023-05-01T04:39:47;38.30;;;34.53;;
68168;SDS011;54981;50.206;15.978;2023-05-01T04:42:18;39.33;;;35.72;;
68168;SDS011;54981;50.206;15.978;2023-05-01T04:44:48;39.05;;;35.50;;
68168;SDS011;54981;50.206;15.978;2023-05-01T04:47:18;35.83;;;31.98;;
68168;SDS011;54981;50.206;15.978;2023-05-01T04:49:49;33.88;;;30.70;;
68168;SDS011;54981;50.206;15.978;2023-05-01T04:52:19;36.60;;;32.95;;
68168;SDS011;54981;50.206;15.978;2023-05-01T04:54:50;38.88;;;35.00;;
68168;SDS011;54981;50.206;15.978;2023-05-01T04:57:20;41.58;;;37.40;;
68168;SDS011;54981;50.206;15.978;2023-05-01T04:59:51;38.75;;;34.80;;
68168;SDS011;54981;50.206;15.978;2023-05-01T05:02:24;37.17;;;33.22;;
68168;SDS011;54981;50.206;15.978;2023-05-01T05:04:54;36.60;;;32.70;;
68168;SDS011;54981;50.206;15.978;2023-05-01T05:07:28;36.25;;;32.50;;
68168;SDS011;54981;50.206;15.978;2023-05-01T05:09:59;37.25;;;32.05;;
68168;SDS011;54981;50.206;15.978;2023-05-01T05:12:29;40.00;;;36.08;;
68168;SDS011;54981;50.206;15.978;2023-05-01T05:15:00;36.53;;;32.58;;
68168;SDS011;54981;50.206;15.978;2023-05-01T05:17:30;38.75;;;34.88;;
68168;SDS011;54981;50.206;15.978;2023-05-01T05:20:04;38.42;;;34.08;;
68168;SDS011;54981;50.206;15.978;2023-05-01T05:22:35;37.78;;;34.03;;
68168;SDS011;54981;50.206;15.978;2023-05-01T05:25:06;39.17;;;35.25;;
68168;SDS011;54981;50.206;15.978;2023-05-01T05:27:37;37.92;;;33.35;;
68168;SDS011;54981;50.206;15.978;2023-05-01T05:30:08;39.42;;;35.25;;
68168;SDS011;54981;50.206;15.978;2023-05-01T05:32:39;37.22;;;33.25;;
68168;SDS011;54981;50.206;15.978;2023-05-01T05:35:09;37.05;;;33.40;;
68168;SDS011;54981;50.206;15.978;2023-05-01T05:37:40;32.53;;;29.13;;
68168;SDS011;54981;50.206;15.978;2023-05-01T05:40:10;32.30;;;28.83;;
68168;SDS011;54981;50.206;15.978;2023-05-01T05:42:41;32.80;;;29.15;;
68168;SDS011;54981;50.206;15.978;2023-05-01T05:45:12;29.45;;;26.38;;
68168;SDS011;54981;50.206;15.978;2023-05-01T05:47:42;29.75;;;26.58;;
68168;SDS011;54981;50.206;15.978;2023-05-01T05:50:15;30.15;;;27.00;;
68168;SDS011;54981;50.206;15.978;2023-05-01T05:52:46;31.98;;;26.90;;
68168;SDS011;54981;50.206;15.978;2023-05-01T05:55:16;31.45;;;28.13;;
68168;SDS011;54981;50.206;15.978;2023-05-01T05:57:46;30.50;;;25.95;;
68168;SDS011;54981;50.206;15.978;2023-05-01T06:00:17;29.33;;;26.13;;
68168;SDS011;54981;50.206;15.978;2023-05-01T06:02:47;28.08;;;25.23;;
68168;SDS011;54981;50.206;15.978;2023-05-01T06:05:18;27.77;;;24.83;;
68168;SDS011;54981;50.206;15.978;2023-05-01T06:07:49;31.20;;;25.80;;
68168;SDS011;54981;50.206;15.978;2023-05-01T06:10:20;29.50;;;26.25;;
68168;SDS011;54981;50.206;15.978;2023-05-01T06:12:50;27.65;;;24.13;;
68168;SDS011;54981;50.206;15.978;2023-05-01T06:15:21;27.83;;;23.55;;
68168;SDS011;54981;50.206;15.978;2023-05-01T06:17:53;27.25;;;23.52;;
68168;SDS011;54981;50.206;15.978;2023-05-01T06:20:24;24.98;;;21.67;;
68168;SDS011;54981;50.206;15.978;2023-05-01T06:22:54;25.83;;;21.08;;
68168;SDS011;54981;50.206;15.978;2023-05-01T06:25:25;25.95;;;20.75;;
68168;SDS011;54981;50.206;15.978;2023-05-01T06:27:55;25.38;;;22.77;;
68168;SDS011;54981;50.206;15.978;2023-05-01T06:30:26;21.38;;;19.27;;
68168;SDS011;54981;50.206;15.978;2023-05-01T06:32:56;23.23;;;20.80;;
68168;SDS011;54981;50.206;15.978;2023-05-01T06:35:27;20.08;;;17.90;;
68168;SDS011;54981;50.206;15.978;2023-05-01T06:38:00;22.73;;;19.70;;
68168;SDS011;54981;50.206;15.978;2023-05-01T06:40:32;20.50;;;18.02;;
68168;SDS011;54981;50.206;15.978;2023-05-01T06:43:04;18.13;;;16.23;;
68168;SDS011;54981;50.206;15.978;2023-05-01T06:45:34;22.83;;;18.63;;
68168;SDS011;54981;50.206;15.978;2023-05-01T06:48:05;18.60;;;16.70;;
68168;SDS011;54981;50.206;15.978;2023-05-01T06:50:35;18.58;;;15.93;;
68168;SDS011;54981;50.206;15.978;2023-05-01T06:53:05;19.67;;;17.60;;
68168;SDS011;54981;50.206;15.978;2023-05-01T06:55:36;16.77;;;14.60;;
68168;SDS011;54981;50.206;15.978;2023-05-01T06:58:06;19.48;;;14.80;;
68168;SDS011;54981;50.206;15.978;2023-05-01T07:00:37;16.80;;;14.25;;
68168;SDS011;54981;50.206;15.978;2023-05-01T07:03:07;17.63;;;13.50;;
68168;SDS011;54981;50.206;15.978;2023-05-01T07:05:40;14.35;;;12.27;;
68168;SDS011;54981;50.206;15.978;2023-05-01T07:08:11;15.98;;;11.40;;
68168;SDS011;54981;50.206;15.978;2023-05-01T07:10:41;12.93;;;9.73;;
68168;SDS011;54981;50.206;15.978;2023-05-01T07:13:12;12.70;;;9.63;;
68168;SDS011;54981;50.206;15.978;2023-05-01T07:15:43;13.15;;;9.38;;
68168;SDS011;54981;50.206;15.978;2023-05-01T07:18:15;13.38;;;9.45;;
68168;SDS011;54981;50.206;15.978;2023-05-01T07:20:46;10.75;;;9.13;;
68168;SDS011;54981;50.206;15.978;2023-05-01T07:23:21;11.38;;;8.45;;
68168;SDS011;54981;50.206;15.978;2023-05-01T07:25:54;15.57;;;10.88;;
68168;SDS011;54981;50.206;15.978;2023-05-01T07:28:24;16.23;;;10.02;;
68168;SDS011;54981;50.206;15.978;2023-05-01T07:30:55;12.02;;;9.52;;
68168;SDS011;54981;50.206;15.978;2023-05-01T07:33:25;18.35;;;10.60;;
68168;SDS011;54981;50.206;15.978;2023-05-01T07:35:56;14.80;;;10.18;;
68168;SDS011;54981;50.206;15.978;2023-05-01T07:38:27;14.60;;;11.35;;
68168;SDS011;54981;50.206;15.978;2023-05-01T07:40:57;13.50;;;11.15;;
68168;SDS011;54981;50.206;15.978;2023-05-01T07:43:27;11.85;;;10.63;;
68168;SDS011;54981;50.206;15.978;2023-05-01T07:45:58;12.35;;;10.30;;
68168;SDS011;54981;50.206;15.978;2023-05-01T07:48:30;11.63;;;9.40;;
68168;SDS011;54981;50.206;15.978;2023-05-01T07:51:01;13.30;;;10.73;;
68168;SDS011;54981;50.206;15.978;2023-05-01T07:53:32;11.45;;;10.27;;
68168;SDS011;54981;50.206;15.978;2023-05-01T07:56:03;12.93;;;10.30;;
68168;SDS011;54981;50.206;15.978;2023-05-01T07:58:37;13.70;;;9.73;;
68168;SDS011;54981;50.206;15.978;2023-05-01T08:01:10;12.18;;;9.52;;
68168;SDS011;54981;50.206;15.978;2023-05-01T08:03:40;14.13;;;10.35;;
68168;SDS011;54981;50.206;15.978;2023-05-01T08:06:11;11.93;;;10.13;;
68168;SDS011;54981;50.206;15.978;2023-05-01T08:08:44;12.70;;;10.38;;
68168;SDS011;54981;50.206;15.978;2023-05-01T08:11:15;13.15;;;10.00;;
68168;SDS011;54981;50.206;15.978;2023-05-01T08:13:47;14.43;;;10.32;;
68168;SDS011;54981;50.206;15.978;2023-05-01T08:16:18;12.38;;;10.05;;
68168;SDS011;54981;50.206;15.978;2023-05-01T08:18:49;10.82;;;8.82;;
68168;SDS011;54981;50.206;15.978;2023-05-01T08:21:19;13.98;;;9.02;;
68168;SDS011;54981;50.206;15.978;2023-05-01T08:23:50;12.93;;;8.45;;
68168;SDS011;54981;50.206;15.978;2023-05-01T08:26:21;11.27;;;8.73;;
68168;SDS011;54981;50.206;15.978;2023-05-01T08:28:54;11.48;;;9.98;;
68168;SDS011;54981;50.206;15.978;2023-05-01T08:31:24;16.07;;;7.87;;
68168;SDS011;54981;50.206;15.978;2023-05-01T08:33:57;11.30;;;9.15;;
68168;SDS011;54981;50.206;15.978;2023-05-01T08:36:28;11.73;;;8.23;;
68168;SDS011;54981;50.206;15.978;2023-05-01T08:38:58;9.65;;;8.10;;
68168;SDS011;54981;50.206;15.978;2023-05-01T08:41:32;9.68;;;8.68;;
68168;SDS011;54981;50.206;15.978;2023-05-01T08:44:05;10.05;;;7.68;;
68168;SDS011;54981;50.206;15.978;2023-05-01T08:46:43;12.07;;;8.05;;
68168;SDS011;54981;50.206;15.978;2023-05-01T08:49:27;10.38;;;8.77;;
68168;SDS011;54981;50.206;15.978;2023-05-01T08:52:02;12.05;;;8.25;;
68168;SDS011;54981;50.206;15.978;2023-05-01T08:54:38;10.43;;;7.85;;
68168;SDS011;54981;50.206;15.978;2023-05-01T08:57:14;12.20;;;8.10;;
68168;SDS011;54981;50.206;15.978;2023-05-01T08:59:46;8.55;;;7.65;;
68168;SDS011;54981;50.206;15.978;2023-05-01T09:02:20;8.98;;;8.00;;
68168;SDS011;54981;50.206;15.978;2023-05-01T09:04:56;8.80;;;7.85;;
68168;SDS011;54981;50.206;15.978;2023-05-01T09:07:29;9.35;;;7.72;;
68168;SDS011;54981;50.206;15.978;2023-05-01T09:10:00;9.75;;;6.82;;
68168;SDS011;54981;50.206;15.978;2023-05-01T09:12:30;8.75;;;6.72;;
68168;SDS011;54981;50.206;15.978;2023-05-01T09:15:04;10.35;;;8.35;;
68168;SDS011;54981;50.206;15.978;2023-05-01T09:17:36;8.07;;;7.28;;
68168;SDS011;54981;50.206;15.978;2023-05-01T09:20:07;9.57;;;7.47;;
68168;SDS011;54981;50.206;15.978;2023-05-01T09:22:38;8.63;;;7.72;;
68168;SDS011;54981;50.206;15.978;2023-05-01T09:25:08;11.18;;;7.28;;
68168;SDS011;54981;50.206;15.978;2023-05-01T09:27:39;10.52;;;7.50;;
68168;SDS011;54981;50.206;15.978;2023-05-01T09:30:16;10.52;;;7.82;;
68168;SDS011;54981;50.206;15.978;2023-05-01T09:33:09;9.15;;;7.18;;
68168;SDS011;54981;50.206;15.978;2023-05-01T09:35:49;8.38;;;7.43;;
68168;SDS011;54981;50.206;15.978;2023-05-01T09:38:24;10.00;;;7.15;;
68168;SDS011;54981;50.206;15.978;2023-05-01T09:41:03;9.55;;;6.93;;
68168;SDS011;54981;50.206;15.978;2023-05-01T09:43:38;8.63;;;6.72;;
68168;SDS011;54981;50.206;15.978;2023-05-01T09:46:09;11.65;;;7.80;;
68168;SDS011;54981;50.206;15.978;2023-05-01T09:48:40;7.68;;;6.88;;
68168;SDS011;54981;50.206;15.978;2023-05-01T09:54:00;8.88;;;6.53;;
68168;SDS011;54981;50.206;15.978;2023-05-01T09:56:32;11.20;;;6.57;;
68168;SDS011;54981;50.206;15.978;2023-05-01T09:59:19;10.70;;;6.85;;
68168;SDS011;54981;50.206;15.978;2023-05-01T10:01:50;9.27;;;7.05;;
68168;SDS011;54981;50.206;15.978;2023-05-01T10:04:30;11.45;;;6.88;;
68168;SDS011;54981;50.206;15.978;2023-05-01T10:07:13;8.45;;;6.72;;
68168;SDS011;54981;50.206;15.978;2023-05-01T10:09:44;9.43;;;7.50;;
68168;SDS011;54981;50.206;15.978;2023-05-01T10:12:21;7.07;;;6.07;;
68168;SDS011;54981;50.206;15.978;2023-05-01T10:14:53;7.53;;;6.07;;
68168;SDS011;54981;50.206;15.978;2023-05-01T10:17:25;7.97;;;6.47;;
68168;SDS011;54981;50.206;15.978;2023-05-01T10:19:55;7.68;;;6.35;;
68168;SDS011;54981;50.206;15.978;2023-05-01T10:22:26;7.35;;;5.82;;
68168;SDS011;54981;50.206;15.978;2023-05-01T10:24:57;7.47;;;6.75;;
68168;SDS011;54981;50.206;15.978;2023-05-01T10:27:28;8.05;;;7.03;;
68168;SDS011;54981;50.206;15.978;2023-05-01T10:30:01;11.38;;;6.70;;
68168;SDS011;54981;50.206;15.978;2023-05-01T10:32:34;8.25;;;6.60;;
68168;SDS011;54981;50.206;15.978;2023-05-01T10:35:13;7.50;;;6.10;;
68168;SDS011;54981;50.206;15.978;2023-05-01T10:37:50;11.02;;;6.53;;
68168;SDS011;54981;50.206;15.978;2023-05-01T10:40:46;8.23;;;6.40;;
68168;SDS011;54981;50.206;15.978;2023-05-01T10:43:21;9.38;;;5.90;;
68168;SDS011;54981;50.206;15.978;2023-05-01T10:51:13;7.40;;;6.25;;
68168;SDS011;54981;50.206;15.978;2023-05-01T10:56:47;8.13;;;6.10;;
68168;SDS011;54981;50.206;15.978;2023-05-01T10:59:18;9.10;;;6.25;;
68168;SDS011;54981;50.206;15.978;2023-05-01T11:01:49;8.05;;;6.07;;
68168;SDS011;54981;50.206;15.978;2023-05-01T11:09:46;8.02;;;5.65;;
68168;SDS011;54981;50.206;15.978;2023-05-01T11:15:27;6.97;;;6.10;;
68168;SDS011;54981;50.206;15.978;2023-05-01T11:18:00;6.78;;;5.72;;
68168;SDS011;54981;50.206;15.978;2023-05-01T11:23:04;9.57;;;6.53;;
68168;SDS011;54981;50.206;15.978;2023-05-01T11:25:35;9.20;;;6.07;;
68168;SDS011;54981;50.206;15.978;2023-05-01T11:28:05;7.32;;;5.90;;
68168;SDS011;54981;50.206;15.978;2023-05-01T11:30:38;9.63;;;6.50;;
68168;SDS011;54981;50.206;15.978;2023-05-01T11:33:09;7.53;;;6.05;;
68168;SDS011;54981;50.206;15.978;2023-05-01T11:35:39;8.68;;;6.07;;
68168;SDS011;54981;50.206;15.978;2023-05-01T11:38:16;7.85;;;5.75;;
68168;SDS011;54981;50.206;15.978;2023-05-01T11:40:56;7.03;;;6.18;;
68168;SDS011;54981;50.206;15.978;2023-05-01T11:43:29;8.10;;;6.63;;
68168;SDS011;54981;50.206;15.978;2023-05-01T11:45:59;8.30;;;6.30;;
68168;SDS011;54981;50.206;15.978;2023-05-01T11:48:32;8.27;;;6.03;;
68168;SDS011;54981;50.206;15.978;2023-05-01T11:51:11;6.40;;;5.80;;
68168;SDS011;54981;50.206;15.978;2023-05-01T11:53:41;7.35;;;5.82;;
68168;SDS011;54981;50.206;15.978;2023-05-01T11:56:31;7.07;;;6.28;;
68168;SDS011;54981;50.206;15.978;2023-05-01T12:01:41;6.53;;;5.32;;
68168;SDS011;54981;50.206;15.978;2023-05-01T12:04:21;8.48;;;6.10;;
68168;SDS011;54981;50.206;15.978;2023-05-01T12:06:56;11.40;;;6.60;;
68168;SDS011;54981;50.206;15.978;2023-05-01T12:09:27;9.85;;;6.82;;
68168;SDS011;54981;50.206;15.978;2023-05-01T12:11:58;9.55;;;6.63;;
68168;SDS011;54981;50.206;15.978;2023-05-01T12:14:30;7.60;;;6.50;;
68168;SDS011;54981;50.206;15.978;2023-05-01T12:17:01;6.97;;;6.13;;
68168;SDS011;54981;50.206;15.978;2023-05-01T12:19:35;7.63;;;6.10;;
68168;SDS011;54981;50.206;15.978;2023-05-01T12:22:15;6.50;;;5.85;;
68168;SDS011;54981;50.206;15.978;2023-05-01T12:24:49;7.63;;;6.60;;
68168;SDS011;54981;50.206;15.978;2023-05-01T12:27:21;7.43;;;5.90;;
68168;SDS011;54981;50.206;15.978;2023-05-01T12:29:54;6.75;;;6.05;;
68168;SDS011;54981;50.206;15.978;2023-05-01T12:32:28;7.35;;;6.38;;
68168;SDS011;54981;50.206;15.978;2023-05-01T12:35:10;8.35;;;6.28;;
68168;SDS011;54981;50.206;15.978;2023-05-01T12:37:42;6.78;;;6.10;;
68168;SDS011;54981;50.206;15.978;2023-05-01T12:40:12;8.18;;;6.32;;
68168;SDS011;54981;50.206;15.978;2023-05-01T12:42:43;7.63;;;6.68;;
68168;SDS011;54981;50.206;15.978;2023-05-01T12:45:23;7.78;;;6.18;;
68168;SDS011;54981;50.206;15.978;2023-05-01T12:47:54;6.97;;;6.10;;
68168;SDS011;54981;50.206;15.978;2023-05-01T12:50:24;7.40;;;6.20;;
68168;SDS011;54981;50.206;15.978;2023-05-01T12:52:55;7.93;;;7.13;;
68168;SDS011;54981;50.206;15.978;2023-05-01T12:55:25;8.10;;;6.82;;
68168;SDS011;54981;50.206;15.978;2023-05-01T12:57:56;8.25;;;6.57;;
68168;SDS011;54981;50.206;15.978;2023-05-01T13:00:26;8.07;;;6.05;;
68168;SDS011;54981;50.206;15.978;2023-05-01T13:03:01;7.60;;;6.32;;
68168;SDS011;54981;50.206;15.978;2023-05-01T13:05:34;7.38;;;5.60;;
68168;SDS011;54981;50.206;15.978;2023-05-01T13:08:05;7.65;;;5.38;;
68168;SDS011;54981;50.206;15.978;2023-05-01T13:10:35;6.53;;;5.47;;
68168;SDS011;54981;50.206;15.978;2023-05-01T13:13:06;7.22;;;5.18;;
68168;SDS011;54981;50.206;15.978;2023-05-01T13:15:37;7.35;;;6.22;;
68168;SDS011;54981;50.206;15.978;2023-05-01T13:18:07;6.82;;;6.10;;
68168;SDS011;54981;50.206;15.978;2023-05-01T13:20:37;7.80;;;5.60;;
68168;SDS011;54981;50.206;15.978;2023-05-01T13:23:09;11.38;;;5.95;;
68168;SDS011;54981;50.206;15.978;2023-05-01T13:25:41;7.60;;;6.75;;
68168;SDS011;54981;50.206;15.978;2023-05-01T13:28:17;7.93;;;5.78;;
68168;SDS011;54981;50.206;15.978;2023-05-01T13:30:48;6.45;;;5.50;;
68168;SDS011;54981;50.206;15.978;2023-05-01T13:33:19;8.43;;;6.18;;
68168;SDS011;54981;50.206;15.978;2023-05-01T13:35:49;6.72;;;5.95;;
68168;SDS011;54981;50.206;15.978;2023-05-01T13:38:20;6.22;;;5.60;;
68168;SDS011;54981;50.206;15.978;2023-05-01T13:40:52;6.72;;;5.32;;
68168;SDS011;54981;50.206;15.978;2023-05-01T13:43:23;9.60;;;5.78;;
68168;SDS011;54981;50.206;15.978;2023-05-01T13:45:56;6.85;;;5.85;;
68168;SDS011;54981;50.206;15.978;2023-05-01T13:48:26;5.60;;;5.07;;
68168;SDS011;54981;50.206;15.978;2023-05-01T13:50:59;7.32;;;5.97;;
68168;SDS011;54981;50.206;15.978;2023-05-01T13:53:30;6.03;;;5.40;;
68168;SDS011;54981;50.206;15.978;2023-05-01T13:56:04;5.93;;;5.43;;
68168;SDS011;54981;50.206;15.978;2023-05-01T13:58:35;5.75;;;5.25;;
68168;SDS011;54981;50.206;15.978;2023-05-01T14:01:18;6.45;;;5.80;;
68168;SDS011;54981;50.206;15.978;2023-05-01T14:03:50;6.97;;;6.10;;
68168;SDS011;54981;50.206;15.978;2023-05-01T14:06:20;7.65;;;5.65;;
68168;SDS011;54981;50.206;15.978;2023-05-01T14:08:51;6.30;;;5.05;;
68168;SDS011;54981;50.206;15.978;2023-05-01T14:11:21;5.88;;;5.32;;
68168;SDS011;54981;50.206;15.978;2023-05-01T14:13:51;6.63;;;5.07;;
68168;SDS011;54981;50.206;15.978;2023-05-01T14:16:27;5.47;;;4.97;;
68168;SDS011;54981;50.206;15.978;2023-05-01T14:19:00;6.80;;;5.40;;
68168;SDS011;54981;50.206;15.978;2023-05-01T14:21:30;6.07;;;5.47;;
68168;SDS011;54981;50.206;15.978;2023-05-01T14:24:09;7.78;;;5.93;;
68168;SDS011;54981;50.206;15.978;2023-05-01T14:26:41;6.40;;;5.80;;
68168;SDS011;54981;50.206;15.978;2023-05-01T14:29:20;6.45;;;5.75;;
68168;SDS011;54981;50.206;15.978;2023-05-01T14:31:52;5.18;;;4.68;;
68168;SDS011;54981;50.206;15.978;2023-05-01T14:34:24;7.35;;;5.22;;
68168;SDS011;54981;50.206;15.978;2023-05-01T14:36:55;7.13;;;5.78;;
68168;SDS011;54981;50.206;15.978;2023-05-01T14:39:25;5.13;;;4.63;;
68168;SDS011;54981;50.206;15.978;2023-05-01T14:41:57;5.88;;;5.32;;
68168;SDS011;54981;50.206;15.978;2023-05-01T14:44:28;5.80;;;5.20;;
68168;SDS011;54981;50.206;15.978;2023-05-01T14:46:59;5.82;;;4.97;;
68168;SDS011;54981;50.206;15.978;2023-05-01T14:49:30;6.07;;;5.43;;
68168;SDS011;54981;50.206;15.978;2023-05-01T14:52:01;5.43;;;4.93;;
68168;SDS011;54981;50.206;15.978;2023-05-01T14:54:31;8.95;;;6.00;;
68168;SDS011;54981;50.206;15.978;2023-05-01T14:57:06;6.72;;;5.78;;
68168;SDS011;54981;50.206;15.978;2023-05-01T14:59:37;7.72;;;5.43;;
68168;SDS011;54981;50.206;15.978;2023-05-01T15:02:07;6.50;;;5.28;;
68168;SDS011;54981;50.206;15.978;2023-05-01T15:04:38;8.63;;;5.03;;
68168;SDS011;54981;50.206;15.978;2023-05-01T15:07:08;5.15;;;4.65;;
68168;SDS011;54981;50.206;15.978;2023-05-01T15:09:41;6.28;;;5.40;;
68168;SDS011;54981;50.206;15.978;2023-05-01T15:12:12;7.28;;;5.10;;
68168;SDS011;54981;50.206;15.978;2023-05-01T15:14:42;7.32;;;5.25;;
68168;SDS011;54981;50.206;15.978;2023-05-01T15:17:16;6.68;;;5.22;;
68168;SDS011;54981;50.206;15.978;2023-05-01T15:19:46;6.55;;;5.13;;
68168;SDS011;54981;50.206;15.978;2023-05-01T15:22:16;6.18;;;5.53;;
68168;SDS011;54981;50.206;15.978;2023-05-01T15:24:47;5.30;;;4.80;;
68168;SDS011;54981;50.206;15.978;2023-05-01T15:27:17;7.70;;;5.10;;
68168;SDS011;54981;50.206;15.978;2023-05-01T15:29:48;5.85;;;5.28;;
68168;SDS011;54981;50.206;15.978;2023-05-01T15:32:18;6.72;;;5.22;;